createdAt,value
2019-06-08T00:04:33.063Z,5.54
2019-06-08T00:09:39.246Z,6.04
2019-06-08T00:14:45.563Z,5.92
2019-06-08T00:19:51.933Z,5.67
2019-06-08T00:24:58.170Z,5.44
2019-06-08T00:30:04.395Z,4.37
2019-06-08T00:35:10.655Z,3.64
2019-06-08T00:40:16.931Z,3.33
2019-06-08T00:45:23.680Z,2.96
2019-06-08T00:50:29.876Z,3.15
2019-06-08T00:55:36.271Z,3.06
2019-06-08T01:00:42.434Z,2.78
2019-06-08T01:05:48.531Z,2.66
2019-06-08T01:10:54.848Z,2.50
2019-06-08T01:16:01.004Z,2.11
2019-06-08T01:21:07.162Z,2.37
2019-06-08T01:26:13.367Z,2.23
2019-06-08T01:31:20.397Z,2.09
2019-06-08T01:36:27.499Z,1.87
2019-06-08T01:41:33.796Z,2.20
2019-06-08T01:46:40.083Z,2.34
2019-06-08T01:51:46.280Z,1.88
2019-06-08T01:56:52.492Z,2.20
2019-06-08T02:01:58.601Z,2.15
2019-06-08T02:07:04.908Z,2.01
2019-06-08T02:12:11.259Z,1.90
2019-06-08T02:17:17.694Z,2.35
2019-06-08T02:22:23.994Z,1.93
2019-06-08T02:27:31.425Z,1.83
2019-06-08T02:32:38.010Z,1.94
2019-06-08T02:37:44.655Z,1.99
2019-06-08T02:42:50.985Z,1.74
2019-06-08T02:47:57.085Z,1.66
2019-06-08T02:53:03.275Z,1.80
2019-06-08T02:58:09.672Z,1.77
2019-06-08T03:03:15.811Z,1.95
2019-06-08T03:08:22.290Z,2.15
2019-06-08T03:13:31.007Z,2.06
2019-06-08T03:18:38.279Z,1.88
2019-06-08T03:23:46.209Z,1.72
2019-06-08T03:28:52.534Z,1.97
2019-06-08T03:33:59.036Z,2.01
2019-06-08T03:39:05.372Z,1.64
2019-06-08T03:44:11.894Z,1.44
2019-06-08T03:49:40.286Z,1.41
2019-06-08T03:54:20.808Z,1.38
2019-06-08T03:59:27.029Z,1.35
2019-06-08T04:04:33.756Z,1.43
2019-06-08T04:09:41.578Z,1.34
2019-06-08T04:14:48.250Z,1.16
2019-06-08T04:20:09.508Z,1.31
2019-06-08T04:25:00.578Z,1.33
2019-06-08T04:30:06.835Z,1.47
2019-06-08T04:35:13.136Z,1.15
2019-06-08T04:40:19.468Z,1.55
2019-06-08T04:45:25.725Z,1.32
2019-06-08T04:50:32.464Z,1.29
2019-06-08T04:55:38.894Z,1.15
2019-06-08T05:00:48.731Z,1.19
2019-06-08T05:05:47.713Z,1.24
2019-06-08T05:10:56.170Z,1.48
2019-06-08T05:16:05.380Z,1.02
2019-06-08T05:21:14.053Z,1.11
2019-06-08T05:26:20.499Z,1.08
2019-06-08T05:31:26.727Z,1.11
2019-06-08T05:36:33.029Z,1.07
2019-06-08T05:41:39.383Z,1.15
2019-06-08T05:46:45.923Z,1.16
2019-06-08T05:51:52.231Z,1.21
2019-06-08T05:56:59.287Z,1.27
2019-06-08T06:02:06.805Z,1.11
2019-06-08T06:07:13.196Z,0.93
2019-06-08T06:12:27.765Z,1.02
2019-06-08T06:17:43.894Z,1.23
2019-06-08T06:22:25.173Z,1.09
2019-06-08T06:27:31.749Z,1.17
2019-06-08T06:32:38.351Z,1.41
2019-06-08T06:37:46.424Z,1.34
2019-06-08T06:42:53.172Z,1.07
2019-06-08T06:47:59.400Z,0.99
2019-06-08T06:53:06.191Z,1.31
2019-06-08T06:58:12.637Z,1.06
2019-06-08T07:03:19.292Z,1.11
2019-06-08T07:08:25.509Z,1.23
2019-06-08T07:13:32.164Z,1.08
2019-06-08T07:18:38.650Z,1.15
2019-06-08T07:23:46.270Z,1.25
2019-06-08T07:28:53.732Z,1.30
2019-06-08T07:34:01.597Z,1.32
2019-06-08T07:39:07.844Z,1.18
2019-06-08T07:44:14.263Z,1.33
2019-06-08T07:49:20.467Z,1.45
2019-06-08T07:54:26.998Z,1.31
2019-06-08T07:59:33.237Z,1.42
2019-06-08T08:04:39.628Z,1.94
2019-06-08T08:09:46.083Z,1.33
2019-06-08T08:14:53.313Z,1.44
2019-06-08T08:19:59.835Z,1.26
2019-06-08T08:25:08.225Z,1.53
2019-06-08T08:30:14.764Z,1.70
2019-06-08T08:35:21.496Z,1.47
2019-06-08T08:40:28.188Z,1.70
2019-06-08T08:45:37.210Z,2.12
2019-06-08T08:50:43.711Z,1.36
2019-06-08T08:56:01.267Z,1.74
2019-06-08T09:01:01.626Z,1.53
2019-06-08T09:06:01.435Z,1.76
2019-06-08T09:11:02.004Z,2.30
2019-06-08T09:16:09.852Z,2.02
2019-06-08T09:21:18.664Z,1.64
2019-06-08T09:26:25.204Z,1.98
2019-06-08T09:31:31.578Z,1.84
2019-06-08T09:36:40.813Z,1.77
2019-06-08T09:41:47.901Z,1.29
2019-06-08T09:46:55.153Z,1.89
2019-06-08T09:52:04.091Z,1.78
2019-06-08T09:57:11.973Z,2.09
2019-06-08T10:02:18.756Z,1.73
2019-06-08T10:07:25.496Z,1.66
2019-06-08T10:12:32.243Z,1.74
2019-06-08T10:17:38.949Z,2.07
2019-06-08T10:22:59.317Z,1.78
2019-06-08T10:27:47.599Z,1.74
2019-06-08T10:32:55.472Z,1.94
2019-06-08T10:38:07.127Z,1.70
2019-06-08T10:43:09.497Z,1.85
2019-06-08T10:48:07.702Z,1.51
2019-06-08T10:53:16.564Z,2.93
2019-06-08T10:58:23.437Z,2.13
2019-06-08T11:03:30.733Z,1.79
2019-06-08T11:08:38.965Z,1.92
2019-06-08T11:13:50.100Z,1.84
2019-06-08T11:18:50.603Z,1.60
2019-06-08T11:24:04.505Z,2.19
2019-06-08T11:28:54.181Z,2.07
2019-06-08T11:34:02.638Z,1.41
2019-06-08T11:39:02.258Z,1.80
2019-06-08T11:44:12.540Z,1.77
2019-06-08T11:49:14.731Z,1.59
2019-06-08T11:54:27.364Z,1.85
2019-06-08T11:59:17.968Z,1.85
2019-06-08T12:04:28.354Z,1.97
2019-06-08T12:09:28.518Z,1.98
2019-06-08T12:14:26.026Z,2.01
2019-06-08T12:19:32.543Z,1.78
2019-06-08T12:24:42.419Z,1.96
2019-06-08T12:29:38.966Z,1.94
2019-06-08T12:34:45.731Z,1.75
2019-06-08T12:39:52.146Z,2.12
2019-06-08T12:44:59.347Z,2.01
2019-06-08T12:50:08.233Z,1.66
2019-06-08T12:55:12.581Z,1.76
2019-06-08T13:00:14.886Z,1.54
2019-06-08T13:05:23.020Z,1.73
2019-06-08T13:10:29.695Z,1.58
2019-06-08T13:15:38.419Z,1.63
2019-06-08T13:20:45.235Z,2.06
2019-06-08T13:25:51.516Z,2.06
2019-06-08T13:30:58.246Z,2.07
2019-06-08T13:36:04.821Z,2.26
2019-06-08T13:41:27.185Z,2.17
2019-06-08T13:46:19.048Z,2.16
2019-06-08T13:51:22.251Z,1.86
2019-06-08T13:56:20.794Z,2.07
2019-06-08T14:01:30.680Z,2.49
2019-06-08T14:06:28.426Z,2.27
2019-06-08T14:11:34.819Z,1.94
2019-06-08T14:16:41.534Z,2.09
2019-06-08T14:21:49.019Z,2.52
2019-06-08T14:26:55.303Z,2.55
2019-06-08T14:32:01.992Z,2.70
2019-06-08T14:37:08.729Z,2.09
2019-06-08T14:42:19.810Z,1.82
2019-06-08T14:47:21.122Z,2.39
2019-06-08T14:52:29.446Z,2.52
2019-06-08T14:57:40.186Z,1.96
2019-06-08T15:02:49.717Z,2.16
2019-06-08T15:08:00.418Z,1.98
2019-06-08T15:12:57.925Z,1.98
2019-06-08T15:18:05.071Z,2.08
2019-06-08T15:23:11.375Z,1.94
2019-06-08T15:28:18.221Z,2.50
2019-06-08T15:33:26.955Z,1.74
2019-06-08T15:38:29.680Z,1.95
2019-06-08T15:43:29.203Z,2.19
2019-06-08T15:48:32.259Z,1.88
2019-06-08T15:53:40.380Z,2.10
2019-06-08T15:58:48.692Z,4.18
2019-06-08T16:03:55.421Z,3.44
2019-06-08T16:09:01.692Z,2.46
2019-06-08T16:14:08.256Z,2.24
2019-06-08T16:19:14.605Z,2.15
2019-06-08T16:24:20.975Z,2.37
2019-06-08T16:29:27.306Z,2.37
2019-06-08T16:34:33.780Z,2.20
2019-06-08T16:39:41.611Z,2.53
2019-06-08T16:44:48.300Z,2.34
2019-06-08T16:49:55.049Z,2.31
2019-06-08T16:55:02.108Z,2.28
2019-06-08T17:00:31.551Z,3.53
2019-06-08T17:05:15.518Z,2.96
2019-06-08T17:10:21.876Z,2.57
2019-06-08T17:15:28.410Z,2.57
2019-06-08T17:20:34.715Z,2.31
2019-06-08T17:25:41.213Z,2.62
2019-06-08T17:30:48.053Z,4.04
2019-06-08T17:35:54.719Z,3.95
2019-06-08T17:41:01.029Z,3.12
2019-06-08T17:46:07.979Z,3.74
2019-06-08T17:51:14.357Z,6.13
2019-06-08T17:56:20.784Z,4.44
2019-06-08T18:01:27.501Z,2.97
2019-06-08T18:06:33.948Z,3.22
2019-06-08T18:11:41.894Z,2.91
2019-06-08T18:16:50.186Z,3.89
2019-06-08T18:22:02.990Z,2.98
2019-06-08T18:27:01.363Z,3.34
2019-06-08T18:32:07.853Z,3.07
2019-06-08T18:37:15.194Z,3.38
2019-06-08T18:42:21.550Z,2.75
2019-06-08T18:47:27.848Z,4.75
2019-06-08T18:52:35.424Z,7.67
2019-06-08T18:57:35.395Z,7.09
2019-06-08T19:02:44.872Z,4.34
2019-06-08T19:07:52.671Z,6.13
2019-06-08T19:12:58.977Z,5.03
2019-06-08T19:18:07.917Z,3.10
2019-06-08T19:23:14.394Z,3.04
2019-06-08T19:28:35.199Z,3.38
2019-06-08T19:33:28.052Z,2.65
2019-06-08T19:38:34.892Z,2.95
2019-06-08T19:43:42.121Z,2.61
2019-06-08T19:48:54.682Z,2.87
2019-06-08T19:53:54.892Z,2.99
2019-06-08T19:59:04.939Z,2.33
2019-06-08T20:04:04.148Z,2.52
2019-06-08T20:09:10.678Z,2.51
2019-06-08T20:14:16.883Z,2.17
2019-06-08T20:19:23.237Z,2.62
2019-06-08T20:24:29.534Z,2.60
2019-06-08T20:29:37.987Z,2.47
2019-06-08T20:34:44.763Z,2.57
2019-06-08T20:40:04.674Z,2.57
2019-06-08T20:44:57.859Z,2.25
2019-06-08T20:50:07.314Z,2.42
2019-06-08T20:55:14.062Z,2.27
2019-06-08T21:00:20.303Z,2.34
2019-06-08T21:05:27.833Z,2.77
2019-06-08T21:10:34.767Z,2.86
2019-06-08T21:15:41.080Z,3.19
2019-06-08T21:20:47.249Z,2.89
2019-06-08T21:25:55.174Z,2.59
2019-06-08T21:31:02.574Z,2.62
2019-06-08T21:36:09.289Z,2.65
2019-06-08T21:41:17.243Z,3.14
2019-06-08T21:46:24.029Z,2.27
2019-06-08T21:51:30.569Z,2.17
2019-06-08T21:56:37.061Z,2.66
2019-06-08T22:01:46.376Z,2.56
2019-06-08T22:06:52.684Z,2.41
2019-06-08T22:12:00.864Z,2.27
2019-06-08T22:17:07.940Z,2.44
2019-06-08T22:22:14.655Z,2.19
2019-06-08T22:27:21.101Z,2.19
2019-06-08T22:32:27.753Z,2.45
2019-06-08T22:37:34.188Z,2.15
2019-06-08T22:42:40.570Z,2.23
2019-06-08T22:47:47.784Z,2.38
2019-06-08T22:52:55.827Z,2.11
2019-06-08T22:57:55.403Z,2.45
2019-06-08T23:03:03.792Z,2.05
2019-06-08T23:08:10.793Z,2.11
2019-06-08T23:13:17.947Z,2.27
2019-06-08T23:18:24.273Z,2.10
2019-06-08T23:23:30.632Z,2.18
2019-06-08T23:28:37.759Z,2.08
2019-06-08T23:33:44.256Z,2.53
2019-06-08T23:38:50.446Z,2.50
2019-06-08T23:43:57.449Z,2.32
2019-06-08T23:49:05.730Z,2.17
2019-06-08T23:54:12.580Z,2.28
2019-06-08T23:59:19.140Z,2.46
